sensor_id;sensor_type;location;lat;lon;timestamp;temperature;humidity
76996;DHT22;65929;49.062;10.338;2023-02-08T00:00:39;-9.50;91.10
76996;DHT22;65929;49.062;10.338;2023-02-08T00:01:41;-9.50;91.10
76996;DHT22;65929;49.062;10.338;2023-02-08T00:02:41;-9.50;91.30
76996;DHT22;65929;49.062;10.338;2023-02-08T00:03:43;-9.40;91.50
76996;DHT22;65929;49.062;10.338;2023-02-08T00:04:44;-9.30;91.70
76996;DHT22;65929;49.062;10.338;2023-02-08T00:05:45;-9.30;91.90
76996;DHT22;65929;49.062;10.338;2023-02-08T00:06:46;-9.30;91.90
76996;DHT22;65929;49.062;10.338;2023-02-08T00:07:47;-9.30;91.90
76996;DHT22;65929;49.062;10.338;2023-02-08T00:08:47;-9.20;92.00
76996;DHT22;65929;49.062;10.338;2023-02-08T00:09:50;-9.10;92.00
76996;DHT22;65929;49.062;10.338;2023-02-08T00:10:51;-9.10;92.00
76996;DHT22;65929;49.062;10.338;2023-02-08T00:11:52;-9.10;91.90
76996;DHT22;65929;49.062;10.338;2023-02-08T00:12:52;-9.20;91.70
76996;DHT22;65929;49.062;10.338;2023-02-08T00:13:53;-9.20;91.60
76996;DHT22;65929;49.062;10.338;2023-02-08T00:14:54;-9.30;91.40
76996;DHT22;65929;49.062;10.338;2023-02-08T00:15:55;-9.30;91.20
76996;DHT22;65929;49.062;10.338;2023-02-08T00:16:56;-9.30;91.00
76996;DHT22;65929;49.062;10.338;2023-02-08T00:17:57;-9.30;90.80
76996;DHT22;65929;49.062;10.338;2023-02-08T00:18:58;-9.40;90.50
76996;DHT22;65929;49.062;10.338;2023-02-08T00:19:59;-9.50;90.40
76996;DHT22;65929;49.062;10.338;2023-02-08T00:21:00;-9.50;90.40
76996;DHT22;65929;49.062;10.338;2023-02-08T00:22:01;-9.60;90.30
76996;DHT22;65929;49.062;10.338;2023-02-08T00:23:02;-9.60;90.30
76996;DHT22;65929;49.062;10.338;2023-02-08T00:24:03;-9.60;90.30
76996;DHT22;65929;49.062;10.338;2023-02-08T00:25:06;-9.60;90.20
76996;DHT22;65929;49.062;10.338;2023-02-08T00:26:07;-9.60;90.10
76996;DHT22;65929;49.062;10.338;2023-02-08T00:27:08;-9.70;90.20
76996;DHT22;65929;49.062;10.338;2023-02-08T00:28:13;-9.70;90.20
76996;DHT22;65929;49.062;10.338;2023-02-08T00:29:14;-9.70;90.10
76996;DHT22;65929;49.062;10.338;2023-02-08T00:30:15;-9.70;90.20
76996;DHT22;65929;49.062;10.338;2023-02-08T00:31:16;-9.70;90.20
76996;DHT22;65929;49.062;10.338;2023-02-08T00:32:17;-9.70;90.30
76996;DHT22;65929;49.062;10.338;2023-02-08T00:33:18;-9.70;90.30
76996;DHT22;65929;49.062;10.338;2023-02-08T00:34:19;-9.70;90.20
76996;DHT22;65929;49.062;10.338;2023-02-08T00:35:20;-9.70;90.20
76996;DHT22;65929;49.062;10.338;2023-02-08T00:36:21;-9.70;90.20
76996;DHT22;65929;49.062;10.338;2023-02-08T00:37:22;-9.60;90.20
76996;DHT22;65929;49.062;10.338;2023-02-08T00:38:23;-9.60;90.20
76996;DHT22;65929;49.062;10.338;2023-02-08T00:39:25;-9.60;90.20
76996;DHT22;65929;49.062;10.338;2023-02-08T00:40:27;-9.60;90.20
76996;DHT22;65929;49.062;10.338;2023-02-08T00:41:28;-9.60;90.10
76996;DHT22;65929;49.062;10.338;2023-02-08T00:42:29;-9.60;90.10
76996;DHT22;65929;49.062;10.338;2023-02-08T00:43:30;-9.60;90.00
76996;DHT22;65929;49.062;10.338;2023-02-08T00:44:31;-9.60;90.00
76996;DHT22;65929;49.062;10.338;2023-02-08T00:45:32;-9.60;89.90
76996;DHT22;65929;49.062;10.338;2023-02-08T00:46:33;-9.60;89.90
76996;DHT22;65929;49.062;10.338;2023-02-08T00:47:34;-9.60;89.80
76996;DHT22;65929;49.062;10.338;2023-02-08T00:48:35;-9.60;89.80
76996;DHT22;65929;49.062;10.338;2023-02-08T00:49:36;-9.70;89.70
76996;DHT22;65929;49.062;10.338;2023-02-08T00:50:37;-9.70;89.70
76996;DHT22;65929;49.062;10.338;2023-02-08T00:51:38;-9.70;89.50
76996;DHT22;65929;49.062;10.338;2023-02-08T00:52:39;-9.80;89.60
76996;DHT22;65929;49.062;10.338;2023-02-08T00:53:42;-9.90;89.50
76996;DHT22;65929;49.062;10.338;2023-02-08T00:54:43;-9.90;89.50
76996;DHT22;65929;49.062;10.338;2023-02-08T00:55:51;-9.90;89.60
76996;DHT22;65929;49.062;10.338;2023-02-08T00:56:52;-9.90;89.70
76996;DHT22;65929;49.062;10.338;2023-02-08T00:57:53;-9.90;89.80
76996;DHT22;65929;49.062;10.338;2023-02-08T00:58:54;-9.90;89.80
76996;DHT22;65929;49.062;10.338;2023-02-08T00:59:55;-10.00;89.90
76996;DHT22;65929;49.062;10.338;2023-02-08T01:00:56;-10.00;89.90
76996;DHT22;65929;49.062;10.338;2023-02-08T01:01:57;-10.00;90.00
76996;DHT22;65929;49.062;10.338;2023-02-08T01:02:58;-10.10;90.00
76996;DHT22;65929;49.062;10.338;2023-02-08T01:03:59;-10.10;90.00
76996;DHT22;65929;49.062;10.338;2023-02-08T01:05:00;-10.00;90.00
76996;DHT22;65929;49.062;10.338;2023-02-08T01:06:01;-10.10;90.00
76996;DHT22;65929;49.062;10.338;2023-02-08T01:07:03;-10.00;90.10
76996;DHT22;65929;49.062;10.338;2023-02-08T01:08:04;-10.00;90.00
76996;DHT22;65929;49.062;10.338;2023-02-08T01:09:05;-10.10;89.80
76996;DHT22;65929;49.062;10.338;2023-02-08T01:10:08;-10.10;89.80
76996;DHT22;65929;49.062;10.338;2023-02-08T01:11:15;-10.10;89.70
76996;DHT22;65929;49.062;10.338;2023-02-08T01:12:18;-10.10;89.60
76996;DHT22;65929;49.062;10.338;2023-02-08T01:13:19;-10.10;89.60
76996;DHT22;65929;49.062;10.338;2023-02-08T01:14:20;-10.10;89.70
76996;DHT22;65929;49.062;10.338;2023-02-08T01:15:21;-10.10;89.70
76996;DHT22;65929;49.062;10.338;2023-02-08T01:16:24;-10.20;89.80
76996;DHT22;65929;49.062;10.338;2023-02-08T01:17:25;-10.20;89.80
76996;DHT22;65929;49.062;10.338;2023-02-08T01:18:26;-10.20;89.90
76996;DHT22;65929;49.062;10.338;2023-02-08T01:19:27;-10.20;89.90
76996;DHT22;65929;49.062;10.338;2023-02-08T01:20:28;-10.20;90.00
76996;DHT22;65929;49.062;10.338;2023-02-08T01:21:31;-10.30;90.00
76996;DHT22;65929;49.062;10.338;2023-02-08T01:22:32;-10.30;90.00
76996;DHT22;65929;49.062;10.338;2023-02-08T01:23:33;-10.30;90.10
76996;DHT22;65929;49.062;10.338;2023-02-08T01:24:35;-10.30;90.30
76996;DHT22;65929;49.062;10.338;2023-02-08T01:25:36;-10.30;90.30
76996;DHT22;65929;49.062;10.338;2023-02-08T01:26:38;-10.30;90.30
76996;DHT22;65929;49.062;10.338;2023-02-08T01:27:39;-10.30;90.40
76996;DHT22;65929;49.062;10.338;2023-02-08T01:28:40;-10.30;90.40
76996;DHT22;65929;49.062;10.338;2023-02-08T01:29:41;-10.20;90.50
76996;DHT22;65929;49.062;10.338;2023-02-08T01:30:42;-10.20;90.60
76996;DHT22;65929;49.062;10.338;2023-02-08T01:31:44;-10.20;90.60
76996;DHT22;65929;49.062;10.338;2023-02-08T01:32:45;-10.20;90.60
76996;DHT22;65929;49.062;10.338;2023-02-08T01:33:46;-10.20;90.60
76996;DHT22;65929;49.062;10.338;2023-02-08T01:34:47;-10.20;90.50
76996;DHT22;65929;49.062;10.338;2023-02-08T01:35:49;-10.20;90.40
76996;DHT22;65929;49.062;10.338;2023-02-08T01:36:51;-10.30;90.50
76996;DHT22;65929;49.062;10.338;2023-02-08T01:37:52;-10.30;90.60
76996;DHT22;65929;49.062;10.338;2023-02-08T01:38:56;-10.20;90.70
76996;DHT22;65929;49.062;10.338;2023-02-08T01:39:58;-10.20;90.80
76996;DHT22;65929;49.062;10.338;2023-02-08T01:40:59;-10.20;90.90
76996;DHT22;65929;49.062;10.338;2023-02-08T01:42:02;-10.20;91.00
76996;DHT22;65929;49.062;10.338;2023-02-08T01:43:05;-10.20;91.00
76996;DHT22;65929;49.062;10.338;2023-02-08T01:45:40;-10.20;91.10
76996;DHT22;65929;49.062;10.338;2023-02-08T01:46:42;-10.20;91.20
76996;DHT22;65929;49.062;10.338;2023-02-08T01:47:44;-10.10;91.20
76996;DHT22;65929;49.062;10.338;2023-02-08T01:48:46;-10.20;91.20
76996;DHT22;65929;49.062;10.338;2023-02-08T01:49:48;-10.20;91.10
76996;DHT22;65929;49.062;10.338;2023-02-08T01:50:51;-10.20;91.10
76996;DHT22;65929;49.062;10.338;2023-02-08T01:51:57;-10.30;91.00
76996;DHT22;65929;49.062;10.338;2023-02-08T01:53:00;-10.30;91.00
76996;DHT22;65929;49.062;10.338;2023-02-08T01:54:02;-10.40;91.00
76996;DHT22;65929;49.062;10.338;2023-02-08T01:55:08;-10.40;91.00
76996;DHT22;65929;49.062;10.338;2023-02-08T01:56:20;-10.50;91.00
76996;DHT22;65929;49.062;10.338;2023-02-08T01:57:24;-10.50;91.10
76996;DHT22;65929;49.062;10.338;2023-02-08T01:58:27;-10.50;91.20
76996;DHT22;65929;49.062;10.338;2023-02-08T01:59:34;-10.50;91.20
76996;DHT22;65929;49.062;10.338;2023-02-08T02:00:36;-10.50;91.20
76996;DHT22;65929;49.062;10.338;2023-02-08T02:01:38;-10.50;91.20
76996;DHT22;65929;49.062;10.338;2023-02-08T02:02:40;-10.60;91.20
76996;DHT22;65929;49.062;10.338;2023-02-08T02:03:42;-10.60;91.20
76996;DHT22;65929;49.062;10.338;2023-02-08T02:04:43;-10.60;91.20
76996;DHT22;65929;49.062;10.338;2023-02-08T02:05:48;-10.60;91.30
76996;DHT22;65929;49.062;10.338;2023-02-08T02:06:53;-10.60;91.40
76996;DHT22;65929;49.062;10.338;2023-02-08T02:07:56;-10.50;91.50
76996;DHT22;65929;49.062;10.338;2023-02-08T02:09:04;-10.50;91.60
76996;DHT22;65929;49.062;10.338;2023-02-08T02:10:11;-10.50;91.70
76996;DHT22;65929;49.062;10.338;2023-02-08T02:11:17;-10.50;91.70
76996;DHT22;65929;49.062;10.338;2023-02-08T02:12:20;-10.50;91.70
76996;DHT22;65929;49.062;10.338;2023-02-08T02:13:24;-10.50;91.60
76996;DHT22;65929;49.062;10.338;2023-02-08T02:14:27;-10.50;91.60
76996;DHT22;65929;49.062;10.338;2023-02-08T02:15:28;-10.50;91.60
76996;DHT22;65929;49.062;10.338;2023-02-08T02:16:29;-10.50;91.60
76996;DHT22;65929;49.062;10.338;2023-02-08T02:17:30;-10.50;91.70
76996;DHT22;65929;49.062;10.338;2023-02-08T02:18:32;-10.40;91.80
76996;DHT22;65929;49.062;10.338;2023-02-08T02:19:42;-10.40;91.80
76996;DHT22;65929;49.062;10.338;2023-02-08T02:21:08;-10.40;91.80
76996;DHT22;65929;49.062;10.338;2023-02-08T02:27:05;-10.50;91.50
76996;DHT22;65929;49.062;10.338;2023-02-08T02:28:38;-10.50;91.40
76996;DHT22;65929;49.062;10.338;2023-02-08T02:30:14;-10.50;91.20
76996;DHT22;65929;49.062;10.338;2023-02-08T02:33:19;-10.60;90.90
76996;DHT22;65929;49.062;10.338;2023-02-08T02:34:26;-10.60;90.90
76996;DHT22;65929;49.062;10.338;2023-02-08T02:35:35;-10.60;90.90
76996;DHT22;65929;49.062;10.338;2023-02-08T02:36:44;-10.70;90.80
76996;DHT22;65929;49.062;10.338;2023-02-08T02:38:02;-10.70;90.70
76996;DHT22;65929;49.062;10.338;2023-02-08T02:39:13;-10.70;90.70
76996;DHT22;65929;49.062;10.338;2023-02-08T02:40:20;-10.70;90.80
76996;DHT22;65929;49.062;10.338;2023-02-08T02:41:27;-10.80;90.80
76996;DHT22;65929;49.062;10.338;2023-02-08T02:43:01;-10.80;90.80
76996;DHT22;65929;49.062;10.338;2023-02-08T02:44:30;-10.80;90.90
76996;DHT22;65929;49.062;10.338;2023-02-08T02:45:42;-10.80;91.00
76996;DHT22;65929;49.062;10.338;2023-02-08T02:46:49;-10.80;91.00
76996;DHT22;65929;49.062;10.338;2023-02-08T02:47:55;-10.80;91.10
76996;DHT22;65929;49.062;10.338;2023-02-08T02:49:18;-10.80;91.20
76996;DHT22;65929;49.062;10.338;2023-02-08T02:50:31;-10.80;91.20
76996;DHT22;65929;49.062;10.338;2023-02-08T02:51:38;-10.80;91.20
76996;DHT22;65929;49.062;10.338;2023-02-08T02:52:44;-10.80;91.30
76996;DHT22;65929;49.062;10.338;2023-02-08T02:53:51;-10.80;91.40
76996;DHT22;65929;49.062;10.338;2023-02-08T02:54:56;-10.80;91.40
76996;DHT22;65929;49.062;10.338;2023-02-08T02:56:02;-10.80;91.40
76996;DHT22;65929;49.062;10.338;2023-02-08T02:57:09;-10.80;91.30
76996;DHT22;65929;49.062;10.338;2023-02-08T02:58:12;-10.80;91.30
76996;DHT22;65929;49.062;10.338;2023-02-08T02:59:16;-10.80;91.30
76996;DHT22;65929;49.062;10.338;2023-02-08T03:00:21;-10.80;91.20
76996;DHT22;65929;49.062;10.338;2023-02-08T03:01:24;-10.80;91.20
76996;DHT22;65929;49.062;10.338;2023-02-08T03:02:32;-10.80;91.20
76996;DHT22;65929;49.062;10.338;2023-02-08T03:03:39;-10.90;91.20
76996;DHT22;65929;49.062;10.338;2023-02-08T03:04:50;-10.90;91.20
76996;DHT22;65929;49.062;10.338;2023-02-08T03:05:53;-10.80;91.30
76996;DHT22;65929;49.062;10.338;2023-02-08T03:07:10;-10.80;91.40
76996;DHT22;65929;49.062;10.338;2023-02-08T03:08:27;-10.80;91.40
76996;DHT22;65929;49.062;10.338;2023-02-08T03:09:47;-10.80;91.40
76996;DHT22;65929;49.062;10.338;2023-02-08T03:11:06;-10.80;91.50
76996;DHT22;65929;49.062;10.338;2023-02-08T03:12:26;-10.80;91.50
76996;DHT22;65929;49.062;10.338;2023-02-08T03:13:34;-10.80;91.50
76996;DHT22;65929;49.062;10.338;2023-02-08T03:14:46;-10.80;91.50
76996;DHT22;65929;49.062;10.338;2023-02-08T03:15:59;-10.80;91.40
76996;DHT22;65929;49.062;10.338;2023-02-08T03:17:27;-10.80;91.40
76996;DHT22;65929;49.062;10.338;2023-02-08T03:18:36;-10.80;91.30
76996;DHT22;65929;49.062;10.338;2023-02-08T03:19:57;-10.90;91.20
76996;DHT22;65929;49.062;10.338;2023-02-08T03:21:10;-10.90;91.10
76996;DHT22;65929;49.062;10.338;2023-02-08T03:22:14;-10.90;91.10
76996;DHT22;65929;49.062;10.338;2023-02-08T03:23:20;-10.90;91.00
76996;DHT22;65929;49.062;10.338;2023-02-08T03:24:28;-10.90;90.90
76996;DHT22;65929;49.062;10.338;2023-02-08T03:25:40;-10.90;90.80
76996;DHT22;65929;49.062;10.338;2023-02-08T03:26:49;-11.00;90.60
76996;DHT22;65929;49.062;10.338;2023-02-08T03:27:58;-11.00;90.60
76996;DHT22;65929;49.062;10.338;2023-02-08T03:29:08;-11.00;90.40
76996;DHT22;65929;49.062;10.338;2023-02-08T03:30:20;-11.00;90.30
76996;DHT22;65929;49.062;10.338;2023-02-08T03:31:28;-11.00;90.20
76996;DHT22;65929;49.062;10.338;2023-02-08T03:32:36;-11.00;90.10
76996;DHT22;65929;49.062;10.338;2023-02-08T03:33:40;-11.00;90.00
76996;DHT22;65929;49.062;10.338;2023-02-08T03:34:52;-11.10;89.90
76996;DHT22;65929;49.062;10.338;2023-02-08T03:35:58;-11.10;89.90
76996;DHT22;65929;49.062;10.338;2023-02-08T03:37:04;-11.10;89.80
76996;DHT22;65929;49.062;10.338;2023-02-08T03:38:10;-11.10;89.80
76996;DHT22;65929;49.062;10.338;2023-02-08T03:39:16;-11.10;89.80
76996;DHT22;65929;49.062;10.338;2023-02-08T03:40:20;-11.10;89.90
76996;DHT22;65929;49.062;10.338;2023-02-08T03:41:25;-11.10;89.80
76996;DHT22;65929;49.062;10.338;2023-02-08T03:42:28;-11.20;89.80
76996;DHT22;65929;49.062;10.338;2023-02-08T03:43:34;-11.20;89.80
76996;DHT22;65929;49.062;10.338;2023-02-08T03:44:38;-11.20;89.80
76996;DHT22;65929;49.062;10.338;2023-02-08T03:45:45;-11.10;90.00
76996;DHT22;65929;49.062;10.338;2023-02-08T03:46:51;-11.10;90.20
76996;DHT22;65929;49.062;10.338;2023-02-08T03:47:54;-11.10;90.20
76996;DHT22;65929;49.062;10.338;2023-02-08T03:49:00;-11.10;90.20
76996;DHT22;65929;49.062;10.338;2023-02-08T03:50:08;-11.20;90.20
76996;DHT22;65929;49.062;10.338;2023-02-08T03:51:10;-11.20;90.10
76996;DHT22;65929;49.062;10.338;2023-02-08T03:52:11;-11.20;90.00
76996;DHT22;65929;49.062;10.338;2023-02-08T03:53:16;-11.20;90.10
76996;DHT22;65929;49.062;10.338;2023-02-08T03:54:19;-11.20;90.20
76996;DHT22;65929;49.062;10.338;2023-02-08T03:55:25;-11.20;90.10
76996;DHT22;65929;49.062;10.338;2023-02-08T03:56:31;-11.20;90.10
76996;DHT22;65929;49.062;10.338;2023-02-08T03:57:37;-11.20;90.10
76996;DHT22;65929;49.062;10.338;2023-02-08T03:58:43;-11.30;90.10
76996;DHT22;65929;49.062;10.338;2023-02-08T03:59:49;-11.30;90.20
76996;DHT22;65929;49.062;10.338;2023-02-08T04:00:59;-11.30;90.30
76996;DHT22;65929;49.062;10.338;2023-02-08T04:02:05;-11.30;90.30
76996;DHT22;65929;49.062;10.338;2023-02-08T04:03:10;-11.30;90.30
76996;DHT22;65929;49.062;10.338;2023-02-08T04:04:14;-11.30;90.30
76996;DHT22;65929;49.062;10.338;2023-02-08T04:05:20;-11.30;90.20
76996;DHT22;65929;49.062;10.338;2023-02-08T04:06:22;-11.30;90.20
76996;DHT22;65929;49.062;10.338;2023-02-08T04:07:23;-11.30;90.20
76996;DHT22;65929;49.062;10.338;2023-02-08T04:08:26;-11.30;90.30
76996;DHT22;65929;49.062;10.338;2023-02-08T04:09:27;-11.30;90.30
76996;DHT22;65929;49.062;10.338;2023-02-08T04:10:28;-11.30;90.40
76996;DHT22;65929;49.062;10.338;2023-02-08T04:11:29;-11.30;90.50
76996;DHT22;65929;49.062;10.338;2023-02-08T04:12:30;-11.30;90.50
76996;DHT22;65929;49.062;10.338;2023-02-08T04:13:31;-11.30;90.50
76996;DHT22;65929;49.062;10.338;2023-02-08T04:14:32;-11.40;90.50
76996;DHT22;65929;49.062;10.338;2023-02-08T04:15:33;-11.40;90.60
76996;DHT22;65929;49.062;10.338;2023-02-08T04:16:34;-11.40;90.60
76996;DHT22;65929;49.062;10.338;2023-02-08T04:17:35;-11.40;90.60
76996;DHT22;65929;49.062;10.338;2023-02-08T04:18:36;-11.40;90.70
76996;DHT22;65929;49.062;10.338;2023-02-08T04:19:37;-11.40;90.80
76996;DHT22;65929;49.062;10.338;2023-02-08T04:20:40;-11.40;90.80
76996;DHT22;65929;49.062;10.338;2023-02-08T04:21:41;-11.40;90.90
76996;DHT22;65929;49.062;10.338;2023-02-08T04:22:42;-11.30;91.00
76996;DHT22;65929;49.062;10.338;2023-02-08T04:23:42;-11.30;91.00
76996;DHT22;65929;49.062;10.338;2023-02-08T04:24:43;-11.30;91.00
76996;DHT22;65929;49.062;10.338;2023-02-08T04:25:44;-11.30;91.00
76996;DHT22;65929;49.062;10.338;2023-02-08T04:26:45;-11.40;90.90
76996;DHT22;65929;49.062;10.338;2023-02-08T04:27:46;-11.40;90.80
76996;DHT22;65929;49.062;10.338;2023-02-08T04:28:47;-11.40;90.90
76996;DHT22;65929;49.062;10.338;2023-02-08T04:29:48;-11.40;90.90
76996;DHT22;65929;49.062;10.338;2023-02-08T04:30:49;-11.30;90.90
76996;DHT22;65929;49.062;10.338;2023-02-08T04:31:50;-11.30;90.90
76996;DHT22;65929;49.062;10.338;2023-02-08T04:32:51;-11.30;90.90
76996;DHT22;65929;49.062;10.338;2023-02-08T04:33:52;-11.30;91.00
76996;DHT22;65929;49.062;10.338;2023-02-08T04:34:53;-11.30;90.90
76996;DHT22;65929;49.062;10.338;2023-02-08T04:35:55;-11.30;90.90
76996;DHT22;65929;49.062;10.338;2023-02-08T04:36:56;-11.30;90.80
76996;DHT22;65929;49.062;10.338;2023-02-08T04:37:58;-11.40;90.80
76996;DHT22;65929;49.062;10.338;2023-02-08T04:38:59;-11.40;90.70
76996;DHT22;65929;49.062;10.338;2023-02-08T04:40:00;-11.30;90.70
76996;DHT22;65929;49.062;10.338;2023-02-08T04:41:01;-11.40;90.60
76996;DHT22;65929;49.062;10.338;2023-02-08T04:42:02;-11.40;90.60
76996;DHT22;65929;49.062;10.338;2023-02-08T04:43:03;-11.40;90.50
76996;DHT22;65929;49.062;10.338;2023-02-08T04:44:04;-11.40;90.60
76996;DHT22;65929;49.062;10.338;2023-02-08T04:45:05;-11.40;90.60
76996;DHT22;65929;49.062;10.338;2023-02-08T04:46:06;-11.40;90.50
76996;DHT22;65929;49.062;10.338;2023-02-08T04:47:07;-11.40;90.50
76996;DHT22;65929;49.062;10.338;2023-02-08T04:48:08;-11.40;90.40
76996;DHT22;65929;49.062;10.338;2023-02-08T04:49:09;-11.40;90.40
76996;DHT22;65929;49.062;10.338;2023-02-08T04:50:10;-11.40;90.40
76996;DHT22;65929;49.062;10.338;2023-02-08T04:51:12;-11.40;90.30
76996;DHT22;65929;49.062;10.338;2023-02-08T04:52:13;-11.50;90.40
76996;DHT22;65929;49.062;10.338;2023-02-08T04:53:14;-11.50;90.50
76996;DHT22;65929;49.062;10.338;2023-02-08T04:54:15;-11.40;90.50
76996;DHT22;65929;49.062;10.338;2023-02-08T04:55:16;-11.50;90.60
76996;DHT22;65929;49.062;10.338;2023-02-08T04:56:17;-11.50;90.50
76996;DHT22;65929;49.062;10.338;2023-02-08T04:57:19;-11.50;90.60
76996;DHT22;65929;49.062;10.338;2023-02-08T04:58:20;-11.50;90.70
76996;DHT22;65929;49.062;10.338;2023-02-08T04:59:21;-11.40;90.80
76996;DHT22;65929;49.062;10.338;2023-02-08T05:00:22;-11.40;90.90
76996;DHT22;65929;49.062;10.338;2023-02-08T05:01:23;-11.30;91.00
76996;DHT22;65929;49.062;10.338;2023-02-08T05:02:24;-11.20;91.20
76996;DHT22;65929;49.062;10.338;2023-02-08T05:03:25;-11.20;91.20
76996;DHT22;65929;49.062;10.338;2023-02-08T05:04:26;-11.10;91.20
76996;DHT22;65929;49.062;10.338;2023-02-08T05:05:27;-11.10;91.10
76996;DHT22;65929;49.062;10.338;2023-02-08T05:06:32;-11.00;91.20
76996;DHT22;65929;49.062;10.338;2023-02-08T05:07:33;-11.00;91.20
76996;DHT22;65929;49.062;10.338;2023-02-08T05:08:34;-10.90;91.10
76996;DHT22;65929;49.062;10.338;2023-02-08T05:09:36;-10.90;91.00
76996;DHT22;65929;49.062;10.338;2023-02-08T05:10:37;-10.90;91.00
76996;DHT22;65929;49.062;10.338;2023-02-08T05:11:43;-10.90;90.90
76996;DHT22;65929;49.062;10.338;2023-02-08T05:12:44;-10.80;90.80
76996;DHT22;65929;49.062;10.338;2023-02-08T05:13:45;-10.80;90.60
76996;DHT22;65929;49.062;10.338;2023-02-08T05:14:46;-10.80;90.40
76996;DHT22;65929;49.062;10.338;2023-02-08T05:15:47;-10.80;90.30
76996;DHT22;65929;49.062;10.338;2023-02-08T05:16:48;-10.80;90.30
76996;DHT22;65929;49.062;10.338;2023-02-08T05:17:49;-10.70;90.40
76996;DHT22;65929;49.062;10.338;2023-02-08T05:18:50;-10.70;90.30
76996;DHT22;65929;49.062;10.338;2023-02-08T05:21:35;-10.70;90.10
76996;DHT22;65929;49.062;10.338;2023-02-08T05:22:50;-10.80;89.70
76996;DHT22;65929;49.062;10.338;2023-02-08T05:24:02;-10.80;89.50
76996;DHT22;65929;49.062;10.338;2023-02-08T05:25:04;-10.90;89.40
76996;DHT22;65929;49.062;10.338;2023-02-08T05:26:11;-10.90;89.30
76996;DHT22;65929;49.062;10.338;2023-02-08T05:27:12;-10.90;89.20
76996;DHT22;65929;49.062;10.338;2023-02-08T05:28:13;-10.90;89.00
76996;DHT22;65929;49.062;10.338;2023-02-08T05:29:16;-10.90;88.90
76996;DHT22;65929;49.062;10.338;2023-02-08T05:30:23;-11.00;88.80
76996;DHT22;65929;49.062;10.338;2023-02-08T05:31:24;-11.00;88.70
76996;DHT22;65929;49.062;10.338;2023-02-08T05:32:25;-11.10;88.70
76996;DHT22;65929;49.062;10.338;2023-02-08T05:33:26;-11.10;88.70
76996;DHT22;65929;49.062;10.338;2023-02-08T05:34:31;-11.20;88.70
76996;DHT22;65929;49.062;10.338;2023-02-08T05:35:31;-11.20;88.70
76996;DHT22;65929;49.062;10.338;2023-02-08T05:36:32;-11.20;88.70
76996;DHT22;65929;49.062;10.338;2023-02-08T05:37:35;-11.30;88.70
76996;DHT22;65929;49.062;10.338;2023-02-08T05:38:36;-11.30;88.70
76996;DHT22;65929;49.062;10.338;2023-02-08T05:39:37;-11.30;88.90
76996;DHT22;65929;49.062;10.338;2023-02-08T05:40:38;-11.30;89.00
76996;DHT22;65929;49.062;10.338;2023-02-08T05:41:39;-11.40;89.10
76996;DHT22;65929;49.062;10.338;2023-02-08T05:42:40;-11.40;89.20
76996;DHT22;65929;49.062;10.338;2023-02-08T05:43:42;-11.40;89.20
76996;DHT22;65929;49.062;10.338;2023-02-08T05:44:42;-11.50;89.20
76996;DHT22;65929;49.062;10.338;2023-02-08T05:45:43;-11.50;89.20
76996;DHT22;65929;49.062;10.338;2023-02-08T05:46:44;-11.50;89.30
76996;DHT22;65929;49.062;10.338;2023-02-08T05:47:45;-11.50;89.20
76996;DHT22;65929;49.062;10.338;2023-02-08T05:48:47;-11.50;89.20
76996;DHT22;65929;49.062;10.338;2023-02-08T05:49:48;-11.50;89.20
76996;DHT22;65929;49.062;10.338;2023-02-08T05:50:49;-11.50;89.20
76996;DHT22;65929;49.062;10.338;2023-02-08T05:51:50;-11.50;89.30
76996;DHT22;65929;49.062;10.338;2023-02-08T05:52:52;-11.50;89.60
76996;DHT22;65929;49.062;10.338;2023-02-08T05:53:53;-11.50;89.70
76996;DHT22;65929;49.062;10.338;2023-02-08T05:54:54;-11.50;89.80
76996;DHT22;65929;49.062;10.338;2023-02-08T05:55:56;-11.50;90.00
76996;DHT22;65929;49.062;10.338;2023-02-08T05:56:57;-11.50;90.10
76996;DHT22;65929;49.062;10.338;2023-02-08T05:57:58;-11.50;90.20
76996;DHT22;65929;49.062;10.338;2023-02-08T05:58:59;-11.50;90.10
76996;DHT22;65929;49.062;10.338;2023-02-08T06:00:01;-11.50;90.10
76996;DHT22;65929;49.062;10.338;2023-02-08T06:01:07;-11.50;90.20
76996;DHT22;65929;49.062;10.338;2023-02-08T06:02:09;-11.50;90.30
76996;DHT22;65929;49.062;10.338;2023-02-08T06:03:10;-11.40;90.50
76996;DHT22;65929;49.062;10.338;2023-02-08T06:04:11;-11.40;90.60
76996;DHT22;65929;49.062;10.338;2023-02-08T06:05:11;-11.30;90.80
76996;DHT22;65929;49.062;10.338;2023-02-08T06:06:12;-11.30;90.90
76996;DHT22;65929;49.062;10.338;2023-02-08T06:07:14;-11.30;90.80
76996;DHT22;65929;49.062;10.338;2023-02-08T06:08:16;-11.30;90.80
76996;DHT22;65929;49.062;10.338;2023-02-08T06:09:17;-11.30;90.90
76996;DHT22;65929;49.062;10.338;2023-02-08T06:10:18;-11.30;90.90
76996;DHT22;65929;49.062;10.338;2023-02-08T06:11:19;-11.30;90.80
76996;DHT22;65929;49.062;10.338;2023-02-08T06:12:20;-11.20;90.70
76996;DHT22;65929;49.062;10.338;2023-02-08T06:13:21;-11.20;90.80
76996;DHT22;65929;49.062;10.338;2023-02-08T06:14:22;-11.20;90.70
76996;DHT22;65929;49.062;10.338;2023-02-08T06:15:23;-11.20;90.60
76996;DHT22;65929;49.062;10.338;2023-02-08T06:16:24;-11.30;90.60
76996;DHT22;65929;49.062;10.338;2023-02-08T06:17:25;-11.30;90.50
76996;DHT22;65929;49.062;10.338;2023-02-08T06:18:26;-11.30;90.50
76996;DHT22;65929;49.062;10.338;2023-02-08T06:20:29;-11.30;90.40
76996;DHT22;65929;49.062;10.338;2023-02-08T06:21:34;-11.30;90.30
76996;DHT22;65929;49.062;10.338;2023-02-08T06:24:23;-11.50;90.00
76996;DHT22;65929;49.062;10.338;2023-02-08T06:25:24;-11.50;89.80
76996;DHT22;65929;49.062;10.338;2023-02-08T06:26:41;-11.50;89.70
76996;DHT22;65929;49.062;10.338;2023-02-08T06:27:51;-11.50;89.80
76996;DHT22;65929;49.062;10.338;2023-02-08T06:29:08;-11.60;89.80
76996;DHT22;65929;49.062;10.338;2023-02-08T06:30:15;-11.60;90.00
76996;DHT22;65929;49.062;10.338;2023-02-08T06:31:22;-11.60;90.10
76996;DHT22;65929;49.062;10.338;2023-02-08T06:32:23;-11.60;90.20
76996;DHT22;65929;49.062;10.338;2023-02-08T06:33:25;-11.60;90.30
76996;DHT22;65929;49.062;10.338;2023-02-08T06:34:26;-11.60;90.30
76996;DHT22;65929;49.062;10.338;2023-02-08T06:35:27;-11.60;90.40
76996;DHT22;65929;49.062;10.338;2023-02-08T06:36:28;-11.50;90.60
76996;DHT22;65929;49.062;10.338;2023-02-08T06:37:29;-11.50;90.60
76996;DHT22;65929;49.062;10.338;2023-02-08T06:38:30;-11.50;90.60
76996;DHT22;65929;49.062;10.338;2023-02-08T06:39:33;-11.50;90.60
76996;DHT22;65929;49.062;10.338;2023-02-08T06:40:33;-11.40;90.70
76996;DHT22;65929;49.062;10.338;2023-02-08T06:41:37;-11.40;90.80
76996;DHT22;65929;49.062;10.338;2023-02-08T06:42:38;-11.30;90.90
76996;DHT22;65929;49.062;10.338;2023-02-08T06:43:39;-11.30;91.00
76996;DHT22;65929;49.062;10.338;2023-02-08T06:44:40;-11.30;91.00